sensor_id;sensor_type;location;lat;lon;timestamp;temperature;humidity
32394;DHT22;18853;45.426;9.206;2023-06-26T00:02:18;32.60;36.20
32394;DHT22;18853;45.426;9.206;2023-06-26T00:04:44;32.50;36.20
32394;DHT22;18853;45.426;9.206;2023-06-26T00:07:10;32.60;36.30
32394;DHT22;18853;45.426;9.206;2023-06-26T00:09:36;32.60;36.40
32394;DHT22;18853;45.426;9.206;2023-06-26T00:12:02;32.60;36.40
32394;DHT22;18853;45.426;9.206;2023-06-26T00:14:27;32.50;36.50
32394;DHT22;18853;45.426;9.206;2023-06-26T00:16:53;32.50;36.50
32394;DHT22;18853;45.426;9.206;2023-06-26T00:19:19;32.50;36.60
32394;DHT22;18853;45.426;9.206;2023-06-26T00:21:45;32.50;36.70
32394;DHT22;18853;45.426;9.206;2023-06-26T00:24:16;32.50;36.80
32394;DHT22;18853;45.426;9.206;2023-06-26T00:26:43;32.50;36.80
32394;DHT22;18853;45.426;9.206;2023-06-26T00:29:08;32.50;36.70
32394;DHT22;18853;45.426;9.206;2023-06-26T00:31:34;32.50;36.80
32394;DHT22;18853;45.426;9.206;2023-06-26T00:34:03;32.50;36.80
32394;DHT22;18853;45.426;9.206;2023-06-26T00:36:29;32.50;36.80
32394;DHT22;18853;45.426;9.206;2023-06-26T00:38:55;32.40;36.80
32394;DHT22;18853;45.426;9.206;2023-06-26T00:41:20;32.40;36.80
32394;DHT22;18853;45.426;9.206;2023-06-26T00:43:46;32.40;37.10
32394;DHT22;18853;45.426;9.206;2023-06-26T00:46:15;32.30;37.10
32394;DHT22;18853;45.426;9.206;2023-06-26T00:48:46;32.30;37.20
32394;DHT22;18853;45.426;9.206;2023-06-26T00:51:12;32.30;37.30
32394;DHT22;18853;45.426;9.206;2023-06-26T00:53:38;32.20;37.20
32394;DHT22;18853;45.426;9.206;2023-06-26T00:56:05;32.20;37.40
32394;DHT22;18853;45.426;9.206;2023-06-26T00:58:31;32.20;37.50
32394;DHT22;18853;45.426;9.206;2023-06-26T01:00:57;32.20;37.60
32394;DHT22;18853;45.426;9.206;2023-06-26T01:03:24;32.20;37.60
32394;DHT22;18853;45.426;9.206;2023-06-26T01:05:52;32.10;37.60
32394;DHT22;18853;45.426;9.206;2023-06-26T01:08:20;32.20;37.70
32394;DHT22;18853;45.426;9.206;2023-06-26T01:10:47;32.20;37.80
32394;DHT22;18853;45.426;9.206;2023-06-26T01:13:14;32.10;37.80
32394;DHT22;18853;45.426;9.206;2023-06-26T01:15:40;32.10;37.90
32394;DHT22;18853;45.426;9.206;2023-06-26T01:18:06;32.10;37.90
32394;DHT22;18853;45.426;9.206;2023-06-26T01:20:36;32.00;38.10
32394;DHT22;18853;45.426;9.206;2023-06-26T01:23:22;32.00;38.20
32394;DHT22;18853;45.426;9.206;2023-06-26T01:28:39;31.90;38.40
32394;DHT22;18853;45.426;9.206;2023-06-26T01:31:07;31.90;38.30
32394;DHT22;18853;45.426;9.206;2023-06-26T01:33:33;31.80;38.30
32394;DHT22;18853;45.426;9.206;2023-06-26T01:36:00;31.80;38.40
32394;DHT22;18853;45.426;9.206;2023-06-26T01:38:26;31.80;38.50
32394;DHT22;18853;45.426;9.206;2023-06-26T01:40:52;31.80;38.60
32394;DHT22;18853;45.426;9.206;2023-06-26T01:50:05;31.70;39.00
32394;DHT22;18853;45.426;9.206;2023-06-26T01:52:53;31.60;39.10
32394;DHT22;18853;45.426;9.206;2023-06-26T01:55:29;31.60;39.10
32394;DHT22;18853;45.426;9.206;2023-06-26T01:57:59;31.40;39.30
32394;DHT22;18853;45.426;9.206;2023-06-26T02:00:25;31.50;39.20
32394;DHT22;18853;45.426;9.206;2023-06-26T02:02:52;31.60;39.10
32394;DHT22;18853;45.426;9.206;2023-06-26T02:05:17;31.60;39.00
32394;DHT22;18853;45.426;9.206;2023-06-26T02:07:43;31.60;39.00
32394;DHT22;18853;45.426;9.206;2023-06-26T02:10:09;31.60;38.90
32394;DHT22;18853;45.426;9.206;2023-06-26T02:12:36;31.60;38.80
32394;DHT22;18853;45.426;9.206;2023-06-26T02:15:03;31.60;38.90
32394;DHT22;18853;45.426;9.206;2023-06-26T02:17:29;31.60;39.00
32394;DHT22;18853;45.426;9.206;2023-06-26T02:19:55;31.50;39.00
32394;DHT22;18853;45.426;9.206;2023-06-26T02:22:21;31.60;39.10
32394;DHT22;18853;45.426;9.206;2023-06-26T02:24:47;31.50;39.10
32394;DHT22;18853;45.426;9.206;2023-06-26T02:27:12;31.50;39.10
32394;DHT22;18853;45.426;9.206;2023-06-26T02:29:40;31.60;39.20
32394;DHT22;18853;45.426;9.206;2023-06-26T02:32:06;31.60;39.20
32394;DHT22;18853;45.426;9.206;2023-06-26T02:34:32;31.50;39.10
32394;DHT22;18853;45.426;9.206;2023-06-26T02:36:58;31.60;39.20
32394;DHT22;18853;45.426;9.206;2023-06-26T02:39:26;31.60;39.10
32394;DHT22;18853;45.426;9.206;2023-06-26T02:41:52;31.50;39.20
32394;DHT22;18853;45.426;9.206;2023-06-26T02:44:18;31.40;39.30
32394;DHT22;18853;45.426;9.206;2023-06-26T02:46:44;31.50;39.30
32394;DHT22;18853;45.426;9.206;2023-06-26T02:49:10;31.50;39.20
32394;DHT22;18853;45.426;9.206;2023-06-26T02:51:35;31.40;39.20
32394;DHT22;18853;45.426;9.206;2023-06-26T02:54:01;31.40;39.30
32394;DHT22;18853;45.426;9.206;2023-06-26T02:56:27;31.40;39.50
32394;DHT22;18853;45.426;9.206;2023-06-26T02:58:57;31.30;39.50
32394;DHT22;18853;45.426;9.206;2023-06-26T03:01:23;31.30;39.60
32394;DHT22;18853;45.426;9.206;2023-06-26T03:03:49;31.30;39.70
32394;DHT22;18853;45.426;9.206;2023-06-26T03:06:15;31.30;39.60
32394;DHT22;18853;45.426;9.206;2023-06-26T03:08:41;31.30;39.60
32394;DHT22;18853;45.426;9.206;2023-06-26T03:11:08;31.30;39.60
32394;DHT22;18853;45.426;9.206;2023-06-26T03:13:35;31.20;39.70
32394;DHT22;18853;45.426;9.206;2023-06-26T03:16:01;31.20;39.70
32394;DHT22;18853;45.426;9.206;2023-06-26T03:18:27;31.20;39.70
32394;DHT22;18853;45.426;9.206;2023-06-26T03:20:53;31.20;39.60
32394;DHT22;18853;45.426;9.206;2023-06-26T03:23:20;31.20;39.60
32394;DHT22;18853;45.426;9.206;2023-06-26T03:25:46;31.20;39.60
32394;DHT22;18853;45.426;9.206;2023-06-26T03:28:12;31.20;39.60
32394;DHT22;18853;45.426;9.206;2023-06-26T03:30:38;31.20;39.70
32394;DHT22;18853;45.426;9.206;2023-06-26T03:33:03;31.10;39.60
32394;DHT22;18853;45.426;9.206;2023-06-26T03:35:29;31.10;39.70
32394;DHT22;18853;45.426;9.206;2023-06-26T03:37:55;31.10;39.60
32394;DHT22;18853;45.426;9.206;2023-06-26T03:40:20;31.10;39.80
32394;DHT22;18853;45.426;9.206;2023-06-26T03:42:46;31.10;39.80
32394;DHT22;18853;45.426;9.206;2023-06-26T03:45:12;31.10;40.50
32394;DHT22;18853;45.426;9.206;2023-06-26T03:47:37;31.10;39.90
32394;DHT22;18853;45.426;9.206;2023-06-26T03:50:03;31.10;39.90
32394;DHT22;18853;45.426;9.206;2023-06-26T03:52:29;31.10;40.00
32394;DHT22;18853;45.426;9.206;2023-06-26T03:54:57;31.10;39.90
32394;DHT22;18853;45.426;9.206;2023-06-26T03:57:23;31.10;39.90
32394;DHT22;18853;45.426;9.206;2023-06-26T03:59:49;31.10;39.90
32394;DHT22;18853;45.426;9.206;2023-06-26T04:02:15;31.00;39.90
32394;DHT22;18853;45.426;9.206;2023-06-26T04:04:41;31.10;40.10
32394;DHT22;18853;45.426;9.206;2023-06-26T04:07:07;31.00;40.00
32394;DHT22;18853;45.426;9.206;2023-06-26T04:09:34;31.10;40.10
32394;DHT22;18853;45.426;9.206;2023-06-26T04:12:00;31.00;40.10
32394;DHT22;18853;45.426;9.206;2023-06-26T04:14:25;31.10;40.10
32394;DHT22;18853;45.426;9.206;2023-06-26T04:16:51;31.10;40.10
32394;DHT22;18853;45.426;9.206;2023-06-26T04:19:17;31.00;40.00
32394;DHT22;18853;45.426;9.206;2023-06-26T04:21:42;31.00;40.10
32394;DHT22;18853;45.426;9.206;2023-06-26T04:24:10;31.00;40.10
32394;DHT22;18853;45.426;9.206;2023-06-26T04:26:35;31.00;40.10
32394;DHT22;18853;45.426;9.206;2023-06-26T04:29:02;30.80;40.10
32394;DHT22;18853;45.426;9.206;2023-06-26T04:31:28;30.90;40.10
32394;DHT22;18853;45.426;9.206;2023-06-26T04:33:54;30.90;40.80
32394;DHT22;18853;45.426;9.206;2023-06-26T04:36:20;30.90;40.20
32394;DHT22;18853;45.426;9.206;2023-06-26T04:38:46;30.80;40.20
32394;DHT22;18853;45.426;9.206;2023-06-26T04:41:14;30.80;40.20
32394;DHT22;18853;45.426;9.206;2023-06-26T04:43:39;30.80;40.20
32394;DHT22;18853;45.426;9.206;2023-06-26T04:46:05;30.80;40.30
32394;DHT22;18853;45.426;9.206;2023-06-26T04:48:32;30.80;40.50
32394;DHT22;18853;45.426;9.206;2023-06-26T04:50:58;30.80;40.50
32394;DHT22;18853;45.426;9.206;2023-06-26T04:53:24;30.80;40.60
32394;DHT22;18853;45.426;9.206;2023-06-26T04:55:51;30.80;40.70
32394;DHT22;18853;45.426;9.206;2023-06-26T04:58:17;30.80;40.60
32394;DHT22;18853;45.426;9.206;2023-06-26T05:00:43;30.80;40.60
32394;DHT22;18853;45.426;9.206;2023-06-26T05:03:11;30.80;40.60
32394;DHT22;18853;45.426;9.206;2023-06-26T05:05:36;30.90;40.70
32394;DHT22;18853;45.426;9.206;2023-06-26T05:08:16;30.90;40.70
32394;DHT22;18853;45.426;9.206;2023-06-26T05:10:43;31.00;40.80
32394;DHT22;18853;45.426;9.206;2023-06-26T05:13:09;31.00;40.70
32394;DHT22;18853;45.426;9.206;2023-06-26T05:15:34;31.00;40.80
32394;DHT22;18853;45.426;9.206;2023-06-26T05:18:00;31.10;41.00
32394;DHT22;18853;45.426;9.206;2023-06-26T05:20:26;31.00;41.10
32394;DHT22;18853;45.426;9.206;2023-06-26T05:22:52;31.00;41.10
32394;DHT22;18853;45.426;9.206;2023-06-26T05:25:18;31.00;41.20
32394;DHT22;18853;45.426;9.206;2023-06-26T05:27:47;31.00;41.40
32394;DHT22;18853;45.426;9.206;2023-06-26T05:30:13;31.00;41.40
32394;DHT22;18853;45.426;9.206;2023-06-26T05:32:40;31.00;41.40
32394;DHT22;18853;45.426;9.206;2023-06-26T05:35:06;31.10;41.40
32394;DHT22;18853;45.426;9.206;2023-06-26T05:37:33;31.00;41.30
32394;DHT22;18853;45.426;9.206;2023-06-26T05:40:00;31.10;41.50
32394;DHT22;18853;45.426;9.206;2023-06-26T05:42:27;31.00;41.50
32394;DHT22;18853;45.426;9.206;2023-06-26T05:44:56;31.00;41.60
32394;DHT22;18853;45.426;9.206;2023-06-26T05:47:22;31.10;41.60
32394;DHT22;18853;45.426;9.206;2023-06-26T05:49:48;31.10;41.60
32394;DHT22;18853;45.426;9.206;2023-06-26T05:52:14;31.10;41.50
32394;DHT22;18853;45.426;9.206;2023-06-26T05:54:40;31.10;41.30
32394;DHT22;18853;45.426;9.206;2023-06-26T05:57:06;31.10;41.30
32394;DHT22;18853;45.426;9.206;2023-06-26T05:59:32;31.10;41.30
32394;DHT22;18853;45.426;9.206;2023-06-26T06:01:58;31.20;41.20
32394;DHT22;18853;45.426;9.206;2023-06-26T06:04:24;31.10;40.90
32394;DHT22;18853;45.426;9.206;2023-06-26T06:06:49;31.20;40.80
32394;DHT22;18853;45.426;9.206;2023-06-26T06:09:15;31.20;40.70
32394;DHT22;18853;45.426;9.206;2023-06-26T06:11:41;31.20;40.60
32394;DHT22;18853;45.426;9.206;2023-06-26T06:14:07;31.20;40.50
32394;DHT22;18853;45.426;9.206;2023-06-26T06:16:33;31.20;40.40
32394;DHT22;18853;45.426;9.206;2023-06-26T06:18:58;31.20;40.50
32394;DHT22;18853;45.426;9.206;2023-06-26T06:21:24;31.20;40.50
32394;DHT22;18853;45.426;9.206;2023-06-26T06:23:50;31.20;40.50
32394;DHT22;18853;45.426;9.206;2023-06-26T06:26:15;31.20;40.00
32394;DHT22;18853;45.426;9.206;2023-06-26T06:28:41;31.20;40.20
32394;DHT22;18853;45.426;9.206;2023-06-26T06:31:07;31.20;40.20
32394;DHT22;18853;45.426;9.206;2023-06-26T06:33:32;31.20;40.30
32394;DHT22;18853;45.426;9.206;2023-06-26T06:35:58;31.30;40.30
32394;DHT22;18853;45.426;9.206;2023-06-26T06:38:24;31.20;39.20
32394;DHT22;18853;45.426;9.206;2023-06-26T06:40:51;31.30;39.80
32394;DHT22;18853;45.426;9.206;2023-06-26T06:43:16;31.30;39.80
32394;DHT22;18853;45.426;9.206;2023-06-26T06:45:42;31.30;39.90
32394;DHT22;18853;45.426;9.206;2023-06-26T06:48:08;31.30;39.70
32394;DHT22;18853;45.426;9.206;2023-06-26T06:50:34;31.30;39.80
32394;DHT22;18853;45.426;9.206;2023-06-26T06:52:59;31.30;39.50
32394;DHT22;18853;45.426;9.206;2023-06-26T06:55:25;31.30;39.50
32394;DHT22;18853;45.426;9.206;2023-06-26T06:57:51;31.30;39.50
32394;DHT22;18853;45.426;9.206;2023-06-26T07:00:17;31.40;39.50
32394;DHT22;18853;45.426;9.206;2023-06-26T07:02:44;31.40;39.30
32394;DHT22;18853;45.426;9.206;2023-06-26T07:05:10;31.30;38.70
32394;DHT22;18853;45.426;9.206;2023-06-26T07:07:37;31.30;39.50
32394;DHT22;18853;45.426;9.206;2023-06-26T07:10:08;31.30;39.50
32394;DHT22;18853;45.426;9.206;2023-06-26T07:12:35;31.30;39.50
32394;DHT22;18853;45.426;9.206;2023-06-26T07:15:01;31.30;39.70
32394;DHT22;18853;45.426;9.206;2023-06-26T07:17:28;31.30;39.00
32394;DHT22;18853;45.426;9.206;2023-06-26T07:19:53;31.20;39.20
32394;DHT22;18853;45.426;9.206;2023-06-26T07:22:19;31.10;39.50
32394;DHT22;18853;45.426;9.206;2023-06-26T07:24:47;31.20;39.70
32394;DHT22;18853;45.426;9.206;2023-06-26T07:27:16;31.20;39.80
32394;DHT22;18853;45.426;9.206;2023-06-26T07:29:43;31.30;39.80
32394;DHT22;18853;45.426;9.206;2023-06-26T07:32:08;31.30;39.60
32394;DHT22;18853;45.426;9.206;2023-06-26T07:34:34;31.30;39.60
32394;DHT22;18853;45.426;9.206;2023-06-26T07:37:00;31.30;39.20
32394;DHT22;18853;45.426;9.206;2023-06-26T07:39:26;31.40;38.90
32394;DHT22;18853;45.426;9.206;2023-06-26T07:41:52;31.30;38.60
32394;DHT22;18853;45.426;9.206;2023-06-26T07:44:18;31.30;38.40
32394;DHT22;18853;45.426;9.206;2023-06-26T07:46:44;31.20;39.00
32394;DHT22;18853;45.426;9.206;2023-06-26T07:49:12;31.30;39.30
32394;DHT22;18853;45.426;9.206;2023-06-26T07:51:38;31.30;39.50
32394;DHT22;18853;45.426;9.206;2023-06-26T07:54:04;31.30;39.30
32394;DHT22;18853;45.426;9.206;2023-06-26T07:56:30;31.30;38.90
32394;DHT22;18853;45.426;9.206;2023-06-26T07:58:55;31.30;39.20
32394;DHT22;18853;45.426;9.206;2023-06-26T08:01:23;31.30;39.00
32394;DHT22;18853;45.426;9.206;2023-06-26T08:03:49;31.40;39.20
32394;DHT22;18853;45.426;9.206;2023-06-26T08:06:15;31.40;39.20
32394;DHT22;18853;45.426;9.206;2023-06-26T08:08:41;31.40;39.20
32394;DHT22;18853;45.426;9.206;2023-06-26T08:11:07;31.50;39.30
32394;DHT22;18853;45.426;9.206;2023-06-26T08:13:33;31.50;38.90
32394;DHT22;18853;45.426;9.206;2023-06-26T08:15:59;31.50;38.60
32394;DHT22;18853;45.426;9.206;2023-06-26T08:18:24;31.50;38.80
32394;DHT22;18853;45.426;9.206;2023-06-26T08:20:50;31.50;38.90
32394;DHT22;18853;45.426;9.206;2023-06-26T08:23:16;31.50;38.60
32394;DHT22;18853;45.426;9.206;2023-06-26T08:25:41;31.50;38.60
32394;DHT22;18853;45.426;9.206;2023-06-26T08:28:08;31.60;39.10
32394;DHT22;18853;45.426;9.206;2023-06-26T08:30:33;31.50;39.00
32394;DHT22;18853;45.426;9.206;2023-06-26T08:32:59;31.50;38.90
32394;DHT22;18853;45.426;9.206;2023-06-26T08:35:25;31.50;39.40
32394;DHT22;18853;45.426;9.206;2023-06-26T08:37:50;31.50;39.50
32394;DHT22;18853;45.426;9.206;2023-06-26T08:40:17;31.60;39.40
32394;DHT22;18853;45.426;9.206;2023-06-26T08:42:46;31.60;39.70
32394;DHT22;18853;45.426;9.206;2023-06-26T08:45:12;31.60;39.90
32394;DHT22;18853;45.426;9.206;2023-06-26T08:47:38;31.60;40.00
32394;DHT22;18853;45.426;9.206;2023-06-26T08:52:35;31.60;40.10
32394;DHT22;18853;45.426;9.206;2023-06-26T08:55:02;31.60;40.10
32394;DHT22;18853;45.426;9.206;2023-06-26T08:57:32;31.70;40.50
32394;DHT22;18853;45.426;9.206;2023-06-26T08:59:57;31.70;40.50
32394;DHT22;18853;45.426;9.206;2023-06-26T09:02:24;31.70;40.30
32394;DHT22;18853;45.426;9.206;2023-06-26T09:04:50;31.70;39.90
32394;DHT22;18853;45.426;9.206;2023-06-26T09:07:16;31.70;39.80
32394;DHT22;18853;45.426;9.206;2023-06-26T09:09:42;31.70;39.60
32394;DHT22;18853;45.426;9.206;2023-06-26T09:12:09;31.70;39.30
32394;DHT22;18853;45.426;9.206;2023-06-26T09:14:37;31.70;39.30
32394;DHT22;18853;45.426;9.206;2023-06-26T09:17:03;31.70;39.50
32394;DHT22;18853;45.426;9.206;2023-06-26T09:19:28;31.70;39.70
32394;DHT22;18853;45.426;9.206;2023-06-26T09:21:54;31.70;40.10
32394;DHT22;18853;45.426;9.206;2023-06-26T09:24:21;31.70;39.70
32394;DHT22;18853;45.426;9.206;2023-06-26T09:26:48;31.70;39.50
32394;DHT22;18853;45.426;9.206;2023-06-26T09:29:15;31.70;39.00
32394;DHT22;18853;45.426;9.206;2023-06-26T09:31:41;31.70;39.00
32394;DHT22;18853;45.426;9.206;2023-06-26T09:34:07;31.70;39.30
32394;DHT22;18853;45.426;9.206;2023-06-26T09:36:33;31.70;39.20
32394;DHT22;18853;45.426;9.206;2023-06-26T09:39:01;31.70;39.20
32394;DHT22;18853;45.426;9.206;2023-06-26T09:41:27;31.70;38.50
32394;DHT22;18853;45.426;9.206;2023-06-26T09:43:54;31.70;38.10
32394;DHT22;18853;45.426;9.206;2023-06-26T09:49:03;31.70;37.50
32394;DHT22;18853;45.426;9.206;2023-06-26T09:51:34;31.80;37.30
32394;DHT22;18853;45.426;9.206;2023-06-26T09:54:00;31.70;37.00
32394;DHT22;18853;45.426;9.206;2023-06-26T09:56:27;31.80;36.40
32394;DHT22;18853;45.426;9.206;2023-06-26T09:58:58;31.80;36.40
32394;DHT22;18853;45.426;9.206;2023-06-26T10:01:25;31.80;36.60
32394;DHT22;18853;45.426;9.206;2023-06-26T10:03:51;31.80;36.80
32394;DHT22;18853;45.426;9.206;2023-06-26T10:06:22;31.90;36.90
32394;DHT22;18853;45.426;9.206;2023-06-26T10:08:50;32.00;36.60
32394;DHT22;18853;45.426;9.206;2023-06-26T10:11:20;32.00;36.90
32394;DHT22;18853;45.426;9.206;2023-06-26T10:13:49;32.00;36.90
32394;DHT22;18853;45.426;9.206;2023-06-26T10:16:23;32.00;37.20
32394;DHT22;18853;45.426;9.206;2023-06-26T10:18:52;32.10;37.40
32394;DHT22;18853;45.426;9.206;2023-06-26T10:21:20;31.90;37.30
32394;DHT22;18853;45.426;9.206;2023-06-26T10:23:48;31.90;37.60
32394;DHT22;18853;45.426;9.206;2023-06-26T10:26:16;32.00;37.20
32394;DHT22;18853;45.426;9.206;2023-06-26T10:28:44;32.10;37.30
32394;DHT22;18853;45.426;9.206;2023-06-26T10:31:11;32.10;38.20
32394;DHT22;18853;45.426;9.206;2023-06-26T10:33:38;32.20;38.40
32394;DHT22;18853;45.426;9.206;2023-06-26T10:36:18;32.10;37.60
32394;DHT22;18853;45.426;9.206;2023-06-26T10:38:56;32.20;37.20
32394;DHT22;18853;45.426;9.206;2023-06-26T10:41:25;32.20;37.80
32394;DHT22;18853;45.426;9.206;2023-06-26T10:46:26;32.30;37.20
32394;DHT22;18853;45.426;9.206;2023-06-26T10:48:59;32.30;37.50
32394;DHT22;18853;45.426;9.206;2023-06-26T10:51:26;32.30;38.00
32394;DHT22;18853;45.426;9.206;2023-06-26T10:53:58;32.20;38.00
32394;DHT22;18853;45.426;9.206;2023-06-26T10:56:43;32.20;38.60
32394;DHT22;18853;45.426;9.206;2023-06-26T10:59:21;32.20;39.10
32394;DHT22;18853;45.426;9.206;2023-06-26T11:01:58;32.20;39.20
32394;DHT22;18853;45.426;9.206;2023-06-26T11:04:46;32.20;38.30
32394;DHT22;18853;45.426;9.206;2023-06-26T11:07:23;32.20;38.70
32394;DHT22;18853;45.426;9.206;2023-06-26T11:10:08;32.30;38.40
32394;DHT22;18853;45.426;9.206;2023-06-26T11:12:44;32.40;38.10
32394;DHT22;18853;45.426;9.206;2023-06-26T11:15:15;32.50;39.00
32394;DHT22;18853;45.426;9.206;2023-06-26T11:17:42;32.50;37.90
32394;DHT22;18853;45.426;9.206;2023-06-26T11:20:16;32.50;37.90
32394;DHT22;18853;45.426;9.206;2023-06-26T11:22:43;32.60;38.00
32394;DHT22;18853;45.426;9.206;2023-06-26T11:25:10;32.60;38.10
32394;DHT22;18853;45.426;9.206;2023-06-26T11:27:43;32.60;38.50
32394;DHT22;18853;45.426;9.206;2023-06-26T11:30:11;32.70;38.20
32394;DHT22;18853;45.426;9.206;2023-06-26T11:32:38;32.80;38.20
32394;DHT22;18853;45.426;9.206;2023-06-26T11:35:04;32.80;38.40
32394;DHT22;18853;45.426;9.206;2023-06-26T11:37:34;32.80;37.70
32394;DHT22;18853;45.426;9.206;2023-06-26T11:40:16;32.80;37.70
32394;DHT22;18853;45.426;9.206;2023-06-26T11:42:42;33.00;38.30
32394;DHT22;18853;45.426;9.206;2023-06-26T11:45:08;33.00;38.70
32394;DHT22;18853;45.426;9.206;2023-06-26T11:47:34;33.00;37.60
32394;DHT22;18853;45.426;9.206;2023-06-26T11:50:04;33.10;37.30
32394;DHT22;18853;45.426;9.206;2023-06-26T11:52:32;33.20;36.90
32394;DHT22;18853;45.426;9.206;2023-06-26T11:54:58;33.20;36.90
32394;DHT22;18853;45.426;9.206;2023-06-26T11:57:24;33.40;36.90
32394;DHT22;18853;45.426;9.206;2023-06-26T11:59:50;33.40;36.20
32394;DHT22;18853;45.426;9.206;2023-06-26T12:02:17;33.40;36.00
32394;DHT22;18853;45.426;9.206;2023-06-26T12:04:44;33.50;36.00
32394;DHT22;18853;45.426;9.206;2023-06-26T12:07:10;33.50;35.90
32394;DHT22;18853;45.426;9.206;2023-06-26T12:09:44;33.60;35.80
32394;DHT22;18853;45.426;9.206;2023-06-26T12:12:11;33.70;35.50
32394;DHT22;18853;45.426;9.206;2023-06-26T12:14:37;33.60;35.40
32394;DHT22;18853;45.426;9.206;2023-06-26T12:17:09;33.70;35.30
32394;DHT22;18853;45.426;9.206;2023-06-26T12:19:37;33.70;35.60
32394;DHT22;18853;45.426;9.206;2023-06-26T12:22:07;33.90;35.80
32394;DHT22;18853;45.426;9.206;2023-06-26T12:24:36;33.90;35.60
32394;DHT22;18853;45.426;9.206;2023-06-26T12:27:07;33.90;35.20
32394;DHT22;18853;45.426;9.206;2023-06-26T12:29:33;34.00;35.30
32394;DHT22;18853;45.426;9.206;2023-06-26T12:31:59;34.00;35.60
32394;DHT22;18853;45.426;9.206;2023-06-26T12:34:34;34.10;35.90
32394;DHT22;18853;45.426;9.206;2023-06-26T12:37:01;34.20;36.00
32394;DHT22;18853;45.426;9.206;2023-06-26T12:39:28;34.30;35.40
32394;DHT22;18853;45.426;9.206;2023-06-26T12:41:55;34.30;35.50
32394;DHT22;18853;45.426;9.206;2023-06-26T12:44:24;34.40;35.80
32394;DHT22;18853;45.426;9.206;2023-06-26T12:46:54;34.40;35.70
32394;DHT22;18853;45.426;9.206;2023-06-26T12:49:20;34.40;35.60
32394;DHT22;18853;45.426;9.206;2023-06-26T12:51:54;34.40;35.80
32394;DHT22;18853;45.426;9.206;2023-06-26T12:54:20;34.40;36.20
32394;DHT22;18853;45.426;9.206;2023-06-26T12:56:45;34.50;36.10
32394;DHT22;18853;45.426;9.206;2023-06-26T12:59:11;34.70;35.80
32394;DHT22;18853;45.426;9.206;2023-06-26T13:01:36;34.70;36.00
32394;DHT22;18853;45.426;9.206;2023-06-26T13:04:02;34.70;35.90
32394;DHT22;18853;45.426;9.206;2023-06-26T13:06:29;34.80;35.60
32394;DHT22;18853;45.426;9.206;2023-06-26T13:08:54;34.80;35.00
32394;DHT22;18853;45.426;9.206;2023-06-26T13:11:20;34.80;35.30
32394;DHT22;18853;45.426;9.206;2023-06-26T13:13:46;34.80;35.10
32394;DHT22;18853;45.426;9.206;2023-06-26T13:16:12;34.80;34.70
32394;DHT22;18853;45.426;9.206;2023-06-26T13:18:38;34.90;34.60
32394;DHT22;18853;45.426;9.206;2023-06-26T13:21:04;35.00;34.40
32394;DHT22;18853;45.426;9.206;2023-06-26T13:23:30;35.10;34.50
32394;DHT22;18853;45.426;9.206;2023-06-26T13:25:55;35.20;34.70
32394;DHT22;18853;45.426;9.206;2023-06-26T13:28:21;35.30;34.30
32394;DHT22;18853;45.426;9.206;2023-06-26T13:30:47;35.40;33.90
32394;DHT22;18853;45.426;9.206;2023-06-26T13:33:12;35.40;33.60
32394;DHT22;18853;45.426;9.206;2023-06-26T13:35:38;35.50;33.80
32394;DHT22;18853;45.426;9.206;2023-06-26T13:38:03;35.50;33.60
32394;DHT22;18853;45.426;9.206;2023-06-26T13:40:29;35.50;32.60
32394;DHT22;18853;45.426;9.206;2023-06-26T13:42:55;35.50;32.30
32394;DHT22;18853;45.426;9.206;2023-06-26T13:45:20;35.60;32.40
32394;DHT22;18853;45.426;9.206;2023-06-26T13:47:46;35.70;32.80
32394;DHT22;18853;45.426;9.206;2023-06-26T13:50:12;35.70;33.80
32394;DHT22;18853;45.426;9.206;2023-06-26T13:52:37;35.80;33.20
32394;DHT22;18853;45.426;9.206;2023-06-26T13:55:03;35.90;33.00
32394;DHT22;18853;45.426;9.206;2023-06-26T13:57:32;36.00;33.40
32394;DHT22;18853;45.426;9.206;2023-06-26T13:59:59;36.00;32.60
32394;DHT22;18853;45.426;9.206;2023-06-26T14:02:24;36.10;33.00
32394;DHT22;18853;45.426;9.206;2023-06-26T14:04:51;36.20;33.00
32394;DHT22;18853;45.426;9.206;2023-06-26T14:07:17;36.20;33.00
32394;DHT22;18853;45.426;9.206;2023-06-26T14:09:43;36.30;33.80
32394;DHT22;18853;45.426;9.206;2023-06-26T14:12:09;36.40;33.50
32394;DHT22;18853;45.426;9.206;2023-06-26T14:14:34;36.50;33.00
32394;DHT22;18853;45.426;9.206;2023-06-26T14:17:00;36.50;32.90
32394;DHT22;18853;45.426;9.206;2023-06-26T14:19:26;36.50;33.00
32394;DHT22;18853;45.426;9.206;2023-06-26T14:21:52;36.50;33.30
32394;DHT22;18853;45.426;9.206;2023-06-26T14:24:17;36.60;33.10
32394;DHT22;18853;45.426;9.206;2023-06-26T14:26:43;36.60;32.80
32394;DHT22;18853;45.426;9.206;2023-06-26T14:29:10;36.50;32.90
32394;DHT22;18853;45.426;9.206;2023-06-26T14:31:35;36.50;32.50
32394;DHT22;18853;45.426;9.206;2023-06-26T14:34:01;36.60;32.50
32394;DHT22;18853;45.426;9.206;2023-06-26T14:36:28;36.70;32.70
32394;DHT22;18853;45.426;9.206;2023-06-26T14:38:56;36.80;31.90
32394;DHT22;18853;45.426;9.206;2023-06-26T14:41:22;36.80;31.40
32394;DHT22;18853;45.426;9.206;2023-06-26T14:43:47;36.90;31.60
32394;DHT22;18853;45.426;9.206;2023-06-26T14:46:14;37.00;31.50
32394;DHT22;18853;45.426;9.206;2023-06-26T14:48:39;36.90;31.50
32394;DHT22;18853;45.426;9.206;2023-06-26T14:51:05;37.00;31.90
32394;DHT22;18853;45.426;9.206;2023-06-26T14:53:30;37.00;31.80
32394;DHT22;18853;45.426;9.206;2023-06-26T14:55:56;37.00;31.70
32394;DHT22;18853;45.426;9.206;2023-06-26T14:58:22;37.20;32.10
32394;DHT22;18853;45.426;9.206;2023-06-26T15:00:48;37.30;32.20
32394;DHT22;18853;45.426;9.206;2023-06-26T15:03:14;37.40;32.00
32394;DHT22;18853;45.426;9.206;2023-06-26T15:05:39;37.50;31.80
32394;DHT22;18853;45.426;9.206;2023-06-26T15:08:05;37.60;31.50
32394;DHT22;18853;45.426;9.206;2023-06-26T15:10:31;37.60;31.60
32394;DHT22;18853;45.426;9.206;2023-06-26T15:12:56;37.60;32.30
32394;DHT22;18853;45.426;9.206;2023-06-26T15:15:22;37.60;32.20
32394;DHT22;18853;45.426;9.206;2023-06-26T15:17:48;37.60;31.90
32394;DHT22;18853;45.426;9.206;2023-06-26T15:20:13;37.70;32.10
32394;DHT22;18853;45.426;9.206;2023-06-26T15:22:39;37.70;32.60
32394;DHT22;18853;45.426;9.206;2023-06-26T15:25:06;37.70;32.40
32394;DHT22;18853;45.426;9.206;2023-06-26T15:27:32;37.70;32.40
32394;DHT22;18853;45.426;9.206;2023-06-26T15:29:58;37.60;32.20
32394;DHT22;18853;45.426;9.206;2023-06-26T15:32:23;37.60;31.90
32394;DHT22;18853;45.426;9.206;2023-06-26T15:34:49;37.60;32.20
32394;DHT22;18853;45.426;9.206;2023-06-26T15:37:15;37.70;31.10
32394;DHT22;18853;45.426;9.206;2023-06-26T15:39:42;37.70;31.00
32394;DHT22;18853;45.426;9.206;2023-06-26T15:42:07;37.70;30.10
32394;DHT22;18853;45.426;9.206;2023-06-26T15:44:33;37.80;30.40
32394;DHT22;18853;45.426;9.206;2023-06-26T15:46:59;37.90;30.70